WetterOnline ( http://www.wetteronline.de )

Wetter aktuell Waibstadt

Aktuelles Wetter: Waibstadt (237m)

6-stündlich | Neueste Meldungen
Ortszeit Temperatur Wetter
Do, 21.02. 13:00 10.0° C bewölkt
Do, 21.02. 7:00 0.7° C bedeckt
Do, 21.02. 1:00 1.9° C fast wolkenlos
Mi, 20.02. 19:00 8.5° C wolkig
Mi, 20.02. 13:00 7.7° C leicht bewölkt
Mi, 20.02. 7:00 -1.4° C Nebel
Mi, 20.02. 1:00 0.7° C wolkig
Di, 19.02. 19:00 6.3° C wolkenlos
Ortszeit Temperatur Wetter
Do, 21.02. 18:00 10.8° C wolkenlos
Do, 21.02. 17:50 10.8° C wolkenlos
Do, 21.02. 17:40 10.6° C wolkenlos
Do, 21.02. 17:30 11.2° C wolkenlos
Do, 21.02. 17:20 11.2° C wolkenlos
Do, 21.02. 17:10 11.3° C leicht bewölkt
Do, 21.02. 17:00 11.9° C wolkig
Do, 21.02. 16:30 12.5° C bedeckt
Do, 21.02. 16:00 11.6° C bewölkt
Do, 21.02. 15:30 11.6° C wolkig
Do, 21.02. 15:00 11.4° C wolkig
Ortszeit Relative Feuchte Sichtweite
Do, 21.02. 13:00 73% 18 km
Do, 21.02. 7:00 96% 6 km
Do, 21.02. 1:00 96% 9 km
Mi, 20.02. 19:00 68% 35 km
Mi, 20.02. 13:00 80% 12 km
Mi, 20.02. 7:00 99% <100 m
Mi, 20.02. 1:00 99% 1.3 km
Di, 19.02. 19:00 81% 27 km
Ortszeit Relative Feuchte Sichtweite
Do, 21.02. 18:00 65% 27 km
Do, 21.02. 17:50 65% -
Do, 21.02. 17:40 65% -
Do, 21.02. 17:30 63% 26 km
Do, 21.02. 17:20 63% -
Do, 21.02. 17:10 62% -
Do, 21.02. 17:00 60% 26 km
Do, 21.02. 16:30 58% 28 km
Do, 21.02. 16:00 65% 22 km
Do, 21.02. 15:30 64% 23 km
Do, 21.02. 15:00 68% 20 km
Ortszeit Niederschlagsmenge Niederschlagsart
Do, 21.02. 13:00 0.0 l/m2 in 6 Std. -
Do, 21.02. 7:00 0.0 l/m2 in 12 Std. -
Do, 21.02. 1:00 0.0 l/m2 in 6 Std. -
Mi, 20.02. 19:00 0.0 l/m2 in 12 Std. -
Mi, 20.02. 13:00 0.0 l/m2 in 6 Std. -
Mi, 20.02. 7:00 0.0 l/m2 in 12 Std. -
Mi, 20.02. 1:00 0.0 l/m2 in 6 Std. -
Di, 19.02. 19:00 0.1 l/m2 in 12 Std. Sprühregen
Ortszeit Niederschlagsmenge Niederschlagsart
Do, 21.02. 18:00 0.0 l/m2 in 1 Std. -
Do, 21.02. 17:50 keine Meldung -
Do, 21.02. 17:40 keine Meldung -
Do, 21.02. 17:30 0.0 l/m2 in 1 Std. -
Do, 21.02. 17:20 keine Meldung -
Do, 21.02. 17:10 keine Meldung -
Do, 21.02. 17:00 0.0 l/m2 in 1 Std. -
Do, 21.02. 16:30 0.0 l/m2 in 1 Std. -
Do, 21.02. 16:00 0.0 l/m2 in 1 Std. -
Do, 21.02. 15:30 0.0 l/m2 in 1 Std. -
Do, 21.02. 15:00 0.0 l/m2 in 1 Std. -
Ortszeit Stärke Spitze Richtung
km/h Bft. km/h Grad Sektor
Do, 21.02. 13:00 6 1 9 240° SW
Do, 21.02. 7:00 4 1 11 80° O
Do, 21.02. 1:00 4 1 11 80° O
Mi, 20.02. 19:00 7 2 19 180° S
Mi, 20.02. 13:00 4 1 7 10° N
Mi, 20.02. 7:00 4 1 7 90° O
Mi, 20.02. 1:00 4 1 22 110° O
Di, 19.02. 19:00 14 3 25 210° SW
Ortszeit Stärke Spitze Richtung
km/h Bft. km/h Grad Sektor
Do, 21.02. 18:00 4 1 7 270° W
Do, 21.02. 17:50 4 1 - 270° W
Do, 21.02. 17:40 4 1 - 250° W
Do, 21.02. 17:30 4 1 7 240° SW
Do, 21.02. 17:20 4 1 - 240° SW
Do, 21.02. 17:10 4 1 - 260° W
Do, 21.02. 17:00 4 1 7 270° W
Do, 21.02. 16:30 6 1 7 230° SW
Do, 21.02. 16:00 4 1 7 330° NW
Do, 21.02. 15:30 4 1 7 320° NW
Do, 21.02. 15:00 4 1 11 310° NW
Ortszeit Untergrenze Bedeckung Gattung
total tief tief mittel hoch
Do, 21.02. 13:00 1800 m 8/8 7/8 - - -
Do, 21.02. 7:00 1050 m 8/8 8/8 - - -
Do, 21.02. 1:00 10500 m 1/8 0/8 - - -
Mi, 20.02. 19:00 3300 m 6/8 4/8 - - -
Mi, 20.02. 13:00 9000 m 7/8 0/8 - - -
Mi, 20.02. 7:00 <30 m 8/8 0/8 - - -
Mi, 20.02. 1:00 5400 m 7/8 3/8 - - -
Di, 19.02. 19:00 - 0/8 0/8 - - -
Ortszeit Bedeckungsgrad in Achtel und Wolkenuntergrenze
Do, 21.02. 18:00 keine Wolken
Do, 21.02. 17:50 keine Wolken
Do, 21.02. 17:40 keine Wolken
Do, 21.02. 17:30 keine Wolken
Do, 21.02. 17:20 keine Wolken
Do, 21.02. 17:10 2(3900m)
Do, 21.02. 17:00 6(3900m)
Do, 21.02. 16:30 5(4500m) 6(5100m) 8(5700m)
Do, 21.02. 16:00 6(1500m) 8(4500m) 8(5100m)
Do, 21.02. 15:30 3(1500m) 8(4800m) 8(6000m)
Do, 21.02. 15:00 1(1800m) 8(4500m) 8(5700m)
Ortszeit Luftdruck NN (hPa) Tendenz (hPa in 3 Std.)
Do, 21.02. 13:00 1029 - 0,2
Do, 21.02. 7:00 1029 + 0,3
Do, 21.02. 1:00 1028 + 0,7
Mi, 20.02. 19:00 1026 + 0,2
Mi, 20.02. 13:00 1026 + 0,6
Mi, 20.02. 7:00 1025 + 0,7
Mi, 20.02. 1:00 1025 + 0,5
Di, 19.02. 19:00 1022 + 0,5
Ortszeit Luftdruck NN (hPa) Tendenz (hPa in 3 Std.)
Do, 21.02. 18:00 1029 + 0,3
Do, 21.02. 17:50 1029 keine Meldung
Do, 21.02. 17:40 1029 keine Meldung
Do, 21.02. 17:30 1028 + 0,1
Do, 21.02. 17:20 1028 keine Meldung
Do, 21.02. 17:10 1028 keine Meldung
Do, 21.02. 17:00 1028 - 0,2
Do, 21.02. 16:30 1028 - 0,7
Do, 21.02. 16:00 1028 - 0,4
Do, 21.02. 15:30 1028 - 0,9
Do, 21.02. 15:00 1028 - 0,9
Ortszeit Schneehöhe (cm)
Do, 21.02. 13:00 0
Do, 21.02. 7:00 0
Do, 21.02. 1:00 0
Mi, 20.02. 19:00 0
Mi, 20.02. 13:00 0
Mi, 20.02. 7:00 0
Mi, 20.02. 1:00 0
Di, 19.02. 19:00 0
Ortszeit Schneehöhe (cm)
Do, 21.02. 18:00 0
Do, 21.02. 17:50 0
Do, 21.02. 17:40 0
Do, 21.02. 17:30 0
Do, 21.02. 17:20 0
Do, 21.02. 17:10 0
Do, 21.02. 17:00 0
Do, 21.02. 16:30 0
Do, 21.02. 16:00 0
Do, 21.02. 15:30 0
Do, 21.02. 15:00 0
Link zu dieser Seite / Seite empfehlen

Das Wetter in ...